KBOI

Boise Air Terminal / Gowen Field Airport

Boise, Idaho, USA
METAR KBOI 220953Z 00000KT 10SM CLR 13/11 A2987 RMK AO2 SLP096 T01330106
Observed Flight Rules
May-22 @ 09:53 UTC (13 minutes ago) Visual Flight Rules
Visibility Clouds
10 miles
  • Clear skies
Temperatures Readings
Current 13°C / 55°F
Dewpoint 11°C / 52°F
Humidity 88%
Altimeter 29.87" Hg
Pressure 1009.6 hPa
Elevation 875
METAR KBOI 220953Z 00000KT 10SM CLR 13/11 A2987 RMK AO2 SLP096 T01330106
Observed Flight Rules
May-22 @ 09:53 UTC
(13 minutes ago)
VFR
Clouds
  • Clear skies
Temperature Dewpoint
13°C / 55°F 11°C / 52°F
Humidity Altimeter Pressure
88% 29.87" Hg 1009.6 hPa